createdAt,value
2022-11-21T00:00:29.689Z,24.83
2022-11-21T00:02:35.524Z,25.60
2022-11-21T00:04:39.838Z,23.63
2022-11-21T00:06:44.274Z,23.55
2022-11-21T00:08:48.786Z,23.13
2022-11-21T00:10:53.121Z,22.88
2022-11-21T00:12:58.219Z,25.17
2022-11-21T00:15:02.695Z,26.63
2022-11-21T00:17:06.900Z,27.90
2022-11-21T00:19:12.649Z,29.98
2022-11-21T00:21:19.025Z,26.50
2022-11-21T00:23:23.328Z,22.42
2022-11-21T00:25:27.813Z,21.52
2022-11-21T00:27:32.176Z,25.33
2022-11-21T00:29:36.506Z,23.98
2022-11-21T00:31:41.409Z,20.50
2022-11-21T00:33:46.253Z,21.15
2022-11-21T00:35:51.865Z,21.25
2022-11-21T00:37:56.216Z,19.63
2022-11-21T00:40:00.513Z,20.50
2022-11-21T00:42:05.079Z,20.17
2022-11-21T00:44:09.579Z,18.05
2022-11-21T00:46:14.014Z,17.92
2022-11-21T00:48:18.498Z,15.32
2022-11-21T00:50:22.743Z,14.90
2022-11-21T00:52:28.556Z,14.77
2022-11-21T00:54:33.137Z,13.88
2022-11-21T00:56:37.392Z,15.35
2022-11-21T00:58:41.857Z,14.75
2022-11-21T01:00:46.187Z,12.25
2022-11-21T01:02:50.417Z,12.50
2022-11-21T01:04:54.922Z,11.50
2022-11-21T01:06:59.371Z,12.93
2022-11-21T01:09:05.207Z,11.52
2022-11-21T01:11:11.865Z,12.80
2022-11-21T01:13:16.105Z,9.38
2022-11-21T01:15:20.475Z,9.43
2022-11-21T01:17:24.735Z,10.40
2022-11-21T01:19:29.030Z,10.80
2022-11-21T01:21:34.079Z,9.13
2022-11-21T01:23:38.293Z,9.88
2022-11-21T01:25:44.101Z,10.27
2022-11-21T01:27:48.306Z,8.55
2022-11-21T01:29:52.968Z,8.10
2022-11-21T01:31:57.678Z,7.50
2022-11-21T01:34:03.610Z,5.75
2022-11-21T01:36:12.119Z,5.78
2022-11-21T01:38:16.516Z,4.05
2022-11-21T01:40:21.074Z,5.80
2022-11-21T01:42:26.833Z,5.35
2022-11-21T01:44:48.049Z,5.00
2022-11-21T01:46:53.405Z,4.68
2022-11-21T01:49:03.486Z,4.28
2022-11-21T01:51:13.135Z,4.25
2022-11-21T01:53:18.146Z,3.95
2022-11-21T01:55:22.602Z,4.30
2022-11-21T01:57:31.803Z,7.40
2022-11-21T01:59:42.146Z,3.88
2022-11-21T02:01:48.832Z,3.72
2022-11-21T02:03:55.381Z,3.70
2022-11-21T02:06:00.756Z,3.83
2022-11-21T02:08:09.301Z,4.00
2022-11-21T02:10:15.028Z,4.47
2022-11-21T02:12:24.974Z,3.45
2022-11-21T02:14:51.286Z,3.72
2022-11-21T02:16:58.368Z,4.63
2022-11-21T02:19:02.746Z,3.78
2022-11-21T02:21:14.918Z,3.78
2022-11-21T02:23:26.789Z,3.78
2022-11-21T02:25:34.392Z,2.75
2022-11-21T02:27:39.133Z,2.90
2022-11-21T02:29:44.511Z,2.92
2022-11-21T02:31:48.976Z,3.97
2022-11-21T02:33:53.605Z,2.80
2022-11-21T02:35:59.739Z,3.45
2022-11-21T02:38:09.384Z,2.42
2022-11-21T02:40:18.614Z,2.90
2022-11-21T02:42:30.126Z,2.63
2022-11-21T02:44:40.546Z,3.15
2022-11-21T02:46:50.324Z,1.73
2022-11-21T02:48:55.022Z,1.92
2022-11-21T02:50:59.261Z,1.30
2022-11-21T02:53:03.812Z,1.27
2022-11-21T02:55:09.459Z,1.30
2022-11-21T02:57:13.837Z,1.02
2022-11-21T02:59:20.740Z,1.23
2022-11-21T03:01:25.252Z,1.00
2022-11-21T03:03:29.438Z,1.05
2022-11-21T03:05:34.290Z,0.55
2022-11-21T03:07:38.696Z,0.98
2022-11-21T03:09:43.253Z,0.73
2022-11-21T03:11:47.706Z,0.85
2022-11-21T03:13:52.203Z,0.70
2022-11-21T03:15:57.990Z,0.70
2022-11-21T03:18:03.395Z,0.60
2022-11-21T03:20:09.041Z,0.80
2022-11-21T03:22:15.646Z,0.50
2022-11-21T03:24:20.049Z,0.50
2022-11-21T03:26:24.341Z,0.70
2022-11-21T03:28:28.660Z,0.80
2022-11-21T03:30:33.033Z,0.93
2022-11-21T03:32:38.655Z,0.60
2022-11-21T03:34:43.029Z,1.20
2022-11-21T03:36:47.588Z,0.88
2022-11-21T03:38:51.873Z,0.90
2022-11-21T03:40:56.381Z,0.90
2022-11-21T03:43:06.084Z,1.30
2022-11-21T03:45:11.069Z,1.27
2022-11-21T03:47:15.271Z,1.73
2022-11-21T03:49:21.021Z,1.55
2022-11-21T03:51:25.860Z,1.73
2022-11-21T03:53:30.271Z,1.48
2022-11-21T03:55:34.528Z,1.98
2022-11-21T03:57:38.935Z,2.20
2022-11-21T03:59:43.171Z,1.70
2022-11-21T04:01:48.107Z,2.20
2022-11-21T04:03:53.343Z,3.03
2022-11-21T04:05:59.152Z,2.55
2022-11-21T04:08:03.423Z,3.83
2022-11-21T04:10:08.354Z,3.40
2022-11-21T04:12:12.859Z,4.38
2022-11-21T04:14:17.089Z,4.60
2022-11-21T04:16:22.084Z,4.85
2022-11-21T04:18:26.355Z,5.30
2022-11-21T04:20:30.668Z,5.88
2022-11-21T04:22:36.414Z,5.70
2022-11-21T04:24:40.692Z,5.25
2022-11-21T04:26:45.005Z,4.78
2022-11-21T04:28:49.194Z,4.90
2022-11-21T04:30:55.180Z,5.80
2022-11-21T04:33:00.091Z,4.82
2022-11-21T04:35:04.353Z,5.30
2022-11-21T04:37:11.566Z,4.72
2022-11-21T04:39:17.519Z,3.88
2022-11-21T04:41:21.903Z,4.50
2022-11-21T04:43:26.137Z,4.57
2022-11-21T04:45:30.659Z,3.78
2022-11-21T04:47:37.835Z,30.17
2022-11-21T04:49:42.223Z,15.63
2022-11-21T04:51:46.543Z,10.90
2022-11-21T04:53:51.092Z,5.80
2022-11-21T04:55:56.804Z,3.33
2022-11-21T04:58:01.428Z,23.92
2022-11-21T05:00:06.679Z,13.90
2022-11-21T05:02:11.480Z,5.35
2022-11-21T05:04:15.764Z,4.07
2022-11-21T05:06:20.259Z,5.68
2022-11-21T05:08:24.515Z,3.53
2022-11-21T05:10:29.056Z,3.40
2022-11-21T05:12:52.465Z,3.95
2022-11-21T05:14:56.849Z,4.65
2022-11-21T05:17:01.185Z,3.72
2022-11-21T05:19:05.413Z,3.05
2022-11-21T05:21:09.795Z,2.35
2022-11-21T05:23:14.549Z,2.47
2022-11-21T05:25:21.083Z,2.13
2022-11-21T05:27:25.439Z,1.90
2022-11-21T05:29:32.159Z,2.90
2022-11-21T05:31:36.893Z,2.22
2022-11-21T05:33:41.167Z,2.40
2022-11-21T05:35:45.506Z,2.13
2022-11-21T05:37:49.779Z,2.40
2022-11-21T05:39:54.032Z,1.73
2022-11-21T05:42:02.680Z,2.63
2022-11-21T05:44:06.445Z,2.70
2022-11-21T05:46:11.933Z,1.63
2022-11-21T05:48:16.050Z,2.58
2022-11-21T05:50:20.195Z,3.00
2022-11-21T05:52:24.454Z,2.78
2022-11-21T05:54:28.814Z,2.80
2022-11-21T05:56:33.329Z,2.65
2022-11-21T05:58:37.516Z,2.20
2022-11-21T06:00:42.463Z,2.20
2022-11-21T06:03:06.927Z,2.50
2022-11-21T06:05:11.270Z,2.05
2022-11-21T06:07:15.560Z,2.53
2022-11-21T06:09:19.903Z,2.25
2022-11-21T06:11:24.048Z,2.40
2022-11-21T06:13:28.868Z,2.20
2022-11-21T06:15:33.459Z,2.15
2022-11-21T06:17:37.570Z,2.92
2022-11-21T06:19:43.238Z,2.90
2022-11-21T06:21:48.088Z,2.78
2022-11-21T06:23:53.541Z,3.00
2022-11-21T06:25:59.473Z,2.15
2022-11-21T06:28:03.835Z,2.85
2022-11-21T06:30:10.255Z,2.75
2022-11-21T06:32:14.646Z,3.05
2022-11-21T06:34:19.391Z,3.00
2022-11-21T06:36:26.500Z,3.17
2022-11-21T06:38:30.876Z,2.83
2022-11-21T06:40:35.151Z,2.90
2022-11-21T06:42:39.825Z,3.85
2022-11-21T06:44:45.623Z,3.90
2022-11-21T06:46:51.599Z,5.25
2022-11-21T06:48:56.298Z,3.90
2022-11-21T06:51:00.516Z,3.80
2022-11-21T06:53:06.392Z,4.03
2022-11-21T06:55:11.851Z,3.95
2022-11-21T06:57:17.348Z,4.45
2022-11-21T06:59:21.676Z,3.28
2022-11-21T07:01:26.613Z,3.60
2022-11-21T07:03:31.299Z,3.53
2022-11-21T07:05:35.727Z,3.90
2022-11-21T07:07:40.331Z,3.17
2022-11-21T07:09:47.967Z,3.83
2022-11-21T07:11:55.449Z,3.78
2022-11-21T07:13:58.618Z,3.95
2022-11-21T07:16:04.830Z,3.63
2022-11-21T07:18:09.201Z,3.75
2022-11-21T07:20:13.766Z,3.38
2022-11-21T07:22:17.811Z,4.10
2022-11-21T07:24:21.999Z,4.32
2022-11-21T07:26:28.093Z,4.22
2022-11-21T07:28:32.871Z,4.20
2022-11-21T07:30:37.605Z,4.00
2022-11-21T07:32:42.543Z,3.88
2022-11-21T07:34:46.770Z,4.65
2022-11-21T07:36:51.109Z,4.90
2022-11-21T07:38:55.539Z,4.78
2022-11-21T07:40:59.922Z,4.10
2022-11-21T07:43:10.849Z,3.63
2022-11-21T07:45:16.327Z,4.18
2022-11-21T07:47:20.456Z,4.68
2022-11-21T07:49:24.825Z,4.65
2022-11-21T07:51:28.968Z,4.75
2022-11-21T07:53:33.230Z,4.25
2022-11-21T07:55:40.608Z,4.07
2022-11-21T07:57:45.157Z,4.75
2022-11-21T07:59:51.032Z,4.38
2022-11-21T08:01:55.398Z,3.83
2022-11-21T08:03:59.874Z,4.53
2022-11-21T08:06:04.956Z,4.85
2022-11-21T08:08:09.804Z,4.22
2022-11-21T08:10:14.028Z,4.20
2022-11-21T08:12:18.764Z,3.50
2022-11-21T08:14:22.950Z,3.70
2022-11-21T08:16:32.886Z,3.70
2022-11-21T08:20:41.930Z,3.30
2022-11-21T08:22:46.093Z,3.45
2022-11-21T08:24:50.184Z,3.80
2022-11-21T08:26:54.881Z,4.25
2022-11-21T08:29:00.183Z,3.72
2022-11-21T08:31:05.874Z,3.55
2022-11-21T08:33:11.318Z,3.83
2022-11-21T08:35:15.512Z,3.55
2022-11-21T08:37:19.671Z,3.30
2022-11-21T08:39:26.073Z,3.10
2022-11-21T08:41:48.152Z,3.65
2022-11-21T08:43:57.397Z,4.10
2022-11-21T08:46:04.582Z,3.47
2022-11-21T08:48:13.047Z,3.70
2022-11-21T08:50:17.323Z,3.33
2022-11-21T08:52:21.490Z,3.72
2022-11-21T08:54:26.333Z,3.35
2022-11-21T08:56:30.852Z,3.25
2022-11-21T08:58:34.976Z,2.83
2022-11-21T09:00:41.401Z,2.88
2022-11-21T09:02:45.502Z,3.20
2022-11-21T09:04:51.348Z,2.85
2022-11-21T09:06:55.475Z,2.58
2022-11-21T09:08:59.541Z,3.33
2022-11-21T09:11:06.642Z,3.20
2022-11-21T09:13:13.481Z,2.75
2022-11-21T09:15:35.126Z,3.08
2022-11-21T09:17:56.940Z,3.03
2022-11-21T09:20:02.823Z,2.53
2022-11-21T09:22:06.987Z,3.03
2022-11-21T09:24:11.027Z,2.38
2022-11-21T09:26:15.289Z,2.05
2022-11-21T09:28:19.375Z,2.55
2022-11-21T09:30:23.424Z,2.65
2022-11-21T09:32:27.504Z,3.97
2022-11-21T09:34:31.881Z,3.25
2022-11-21T09:36:37.757Z,2.70
2022-11-21T09:38:41.897Z,3.85
2022-11-21T09:40:48.970Z,3.05
2022-11-21T09:43:06.189Z,2.95
2022-11-21T09:45:14.929Z,2.05
2022-11-21T09:47:25.422Z,1.95
2022-11-21T09:49:31.220Z,2.20
2022-11-21T09:51:40.027Z,2.72
2022-11-21T09:53:54.280Z,2.40
2022-11-21T09:56:00.995Z,2.47
2022-11-21T09:58:10.482Z,2.33
2022-11-21T10:00:20.760Z,3.05
2022-11-21T10:02:26.224Z,2.90
2022-11-21T10:04:30.815Z,3.13
2022-11-21T10:06:44.123Z,3.20
2022-11-21T10:08:57.028Z,3.88
2022-11-21T10:11:19.338Z,3.70
2022-11-21T10:13:40.285Z,3.90
2022-11-21T10:15:57.692Z,4.00
2022-11-21T10:18:14.857Z,5.78
2022-11-21T10:20:30.372Z,4.75
2022-11-21T10:22:54.777Z,4.47
2022-11-21T10:25:07.696Z,4.57
2022-11-21T10:27:17.302Z,4.57
2022-11-21T10:29:25.876Z,4.55
2022-11-21T10:31:32.554Z,4.00
2022-11-21T10:33:40.416Z,3.63
2022-11-21T10:35:48.375Z,3.90
2022-11-21T10:37:57.821Z,3.97
2022-11-21T10:40:15.885Z,3.60
2022-11-21T10:42:32.077Z,3.90
2022-11-21T10:44:53.586Z,3.10
2022-11-21T10:46:58.409Z,3.53
2022-11-21T10:49:03.806Z,4.82
2022-11-21T10:51:21.317Z,5.78
2022-11-21T10:53:45.365Z,5.35
2022-11-21T10:56:00.848Z,5.47
2022-11-21T10:58:18.883Z,6.05
2022-11-21T11:00:25.607Z,6.97
2022-11-21T11:02:29.714Z,7.13
2022-11-21T11:04:43.898Z,7.40
2022-11-21T11:06:51.908Z,8.20
2022-11-21T11:08:57.512Z,7.95
2022-11-21T11:11:08.576Z,8.02
2022-11-21T11:13:46.222Z,9.48
2022-11-21T11:16:02.957Z,10.45
2022-11-21T11:18:15.605Z,11.50
2022-11-21T11:20:38.903Z,11.15
2022-11-21T11:22:42.959Z,10.35
2022-11-21T11:24:59.120Z,11.45
2022-11-21T11:27:04.955Z,12.40
2022-11-21T11:29:11.631Z,15.00
2022-11-21T11:31:15.833Z,13.13
2022-11-21T11:33:35.362Z,11.88
2022-11-21T11:35:40.491Z,13.18
2022-11-21T11:37:51.877Z,13.70
2022-11-21T11:40:08.557Z,11.93
2022-11-21T11:43:05.717Z,12.48
2022-11-21T11:45:35.206Z,12.93
2022-11-21T11:47:48.935Z,14.70
2022-11-21T11:50:12.397Z,16.63
2022-11-21T11:52:16.995Z,14.23
2022-11-21T11:54:25.834Z,13.40
2022-11-21T11:56:37.121Z,15.50
2022-11-21T11:58:45.189Z,16.52
2022-11-21T12:00:55.466Z,15.15
2022-11-21T12:03:05.474Z,16.45
2022-11-21T12:09:54.521Z,15.48
2022-11-21T12:12:08.282Z,15.77
2022-11-21T12:14:48.803Z,14.40
2022-11-21T12:16:54.214Z,14.25
2022-11-21T12:19:04.532Z,15.68
2022-11-21T12:23:15.353Z,14.70
2022-11-21T12:25:23.002Z,15.07
2022-11-21T12:27:33.081Z,13.63
2022-11-21T12:29:50.726Z,13.63
2022-11-21T12:32:16.389Z,12.38
2022-11-21T12:34:43.717Z,12.52
2022-11-21T12:36:55.030Z,12.93
2022-11-21T12:39:30.826Z,13.05
2022-11-21T12:42:00.047Z,13.63
2022-11-21T12:44:14.964Z,14.10
2022-11-21T12:46:28.004Z,13.93
2022-11-21T12:49:14.206Z,13.52
2022-11-21T12:52:03.525Z,14.40
2022-11-21T12:54:33.424Z,13.85
2022-11-21T12:56:47.811Z,14.45
2022-11-21T12:58:54.970Z,14.55
2022-11-21T13:01:22.040Z,14.80
2022-11-21T13:03:48.822Z,14.43
2022-11-21T13:05:56.624Z,16.30
2022-11-21T13:08:04.704Z,16.48
2022-11-21T13:10:15.595Z,16.15
2022-11-21T13:12:26.916Z,15.32
2022-11-21T13:14:41.460Z,16.67
2022-11-21T13:16:54.509Z,17.27
2022-11-21T13:18:59.293Z,16.35
2022-11-21T13:21:03.948Z,18.63
2022-11-21T13:23:36.526Z,17.35
2022-11-21T13:25:49.641Z,18.20
2022-11-21T13:27:54.990Z,17.20
2022-11-21T13:30:34.788Z,16.35
2022-11-21T13:32:42.048Z,17.73
2022-11-21T13:34:46.525Z,16.38
2022-11-21T13:36:50.977Z,17.20
2022-11-21T13:39:33.999Z,17.45
2022-11-21T13:42:20.400Z,15.35
2022-11-21T13:44:38.915Z,14.70
2022-11-21T13:47:02.269Z,13.30
2022-11-21T13:49:12.921Z,12.15
2022-11-21T13:51:59.591Z,11.40
2022-11-21T13:54:38.537Z,10.57
2022-11-21T13:56:57.375Z,9.95
2022-11-21T13:59:12.340Z,9.63
2022-11-21T14:01:52.054Z,9.93
2022-11-21T14:04:27.707Z,9.52
2022-11-21T14:06:37.767Z,8.82
2022-11-21T14:08:43.872Z,7.63
2022-11-21T14:10:51.553Z,7.53
2022-11-21T14:12:57.343Z,8.00
2022-11-21T14:15:27.818Z,8.40
2022-11-21T14:17:45.027Z,8.50
2022-11-21T14:19:52.573Z,8.70
2022-11-21T14:21:57.043Z,9.55
2022-11-21T14:24:05.488Z,11.07
2022-11-21T14:26:18.530Z,10.23
2022-11-21T14:28:26.427Z,11.32
2022-11-21T14:30:34.198Z,11.85
2022-11-21T14:32:38.489Z,11.20
2022-11-21T14:34:42.721Z,10.05
2022-11-21T14:36:49.618Z,8.82
2022-11-21T14:39:29.108Z,8.52
2022-11-21T14:41:28.295Z,8.70
2022-11-21T14:43:34.694Z,8.10
2022-11-21T14:45:40.620Z,8.18
2022-11-21T14:47:52.230Z,9.10
2022-11-21T14:50:01.079Z,7.68
2022-11-21T14:52:22.197Z,12.30
2022-11-21T14:54:33.890Z,8.30
2022-11-21T14:56:38.640Z,8.13
2022-11-21T14:58:42.961Z,7.95
2022-11-21T15:01:03.133Z,7.82
2022-11-21T15:03:22.232Z,8.45
2022-11-21T15:06:00.324Z,8.63
2022-11-21T15:08:23.844Z,9.07
2022-11-21T15:10:30.857Z,8.05
2022-11-21T15:12:45.775Z,8.07
2022-11-21T15:14:54.244Z,8.57
2022-11-21T15:17:04.183Z,8.63
2022-11-21T15:19:11.052Z,8.85
2022-11-21T15:21:17.880Z,8.43
2022-11-21T15:23:32.479Z,7.85
2022-11-21T15:25:47.645Z,9.13
2022-11-21T15:27:54.476Z,8.43
2022-11-21T15:30:17.670Z,9.38
2022-11-21T15:32:24.704Z,8.63
2022-11-21T15:34:36.361Z,8.93
2022-11-21T15:36:41.194Z,8.55
2022-11-21T15:38:51.818Z,8.20
2022-11-21T15:41:04.782Z,7.70
2022-11-21T15:43:10.418Z,8.30
2022-11-21T15:45:27.944Z,7.35
2022-11-21T15:47:32.661Z,8.88
2022-11-21T15:49:37.445Z,8.00
2022-11-21T15:52:06.049Z,7.50
2022-11-21T15:54:13.253Z,7.38
2022-11-21T15:56:23.130Z,8.15
2022-11-21T15:58:28.130Z,7.88
2022-11-21T16:00:32.596Z,8.15
2022-11-21T16:02:38.032Z,7.82
2022-11-21T16:04:42.860Z,8.02
2022-11-21T16:06:48.044Z,7.35
2022-11-21T16:08:52.654Z,7.78
2022-11-21T16:10:58.515Z,7.60
2022-11-21T16:13:02.850Z,8.00
2022-11-21T16:15:08.376Z,8.10
2022-11-21T16:17:13.119Z,8.77
2022-11-21T16:19:17.996Z,7.43
2022-11-21T16:21:22.690Z,8.23
2022-11-21T16:23:37.692Z,8.80
2022-11-21T16:25:53.574Z,9.02
2022-11-21T16:28:05.692Z,9.45
2022-11-21T16:30:12.437Z,9.45
2022-11-21T16:32:16.876Z,8.75
2022-11-21T16:34:22.704Z,8.80
2022-11-21T16:36:28.503Z,8.40
2022-11-21T16:38:34.538Z,7.68
2022-11-21T16:40:40.929Z,6.95
2022-11-21T16:42:47.015Z,7.20
2022-11-21T16:44:56.117Z,6.68
2022-11-21T16:47:06.660Z,6.80
2022-11-21T16:49:16.203Z,7.63
2022-11-21T16:51:22.439Z,6.25
2022-11-21T16:53:26.893Z,7.10
2022-11-21T16:55:31.946Z,6.13
2022-11-21T16:57:37.549Z,7.57
2022-11-21T16:59:42.171Z,7.28
2022-11-21T17:01:47.974Z,7.28
2022-11-21T17:03:54.484Z,6.78
2022-11-21T17:05:59.623Z,7.60
2022-11-21T17:08:04.002Z,7.32
2022-11-21T17:10:09.969Z,7.07
2022-11-21T17:12:14.372Z,7.50
2022-11-21T17:14:18.720Z,8.48
2022-11-21T17:16:25.091Z,8.40
2022-11-21T17:18:32.119Z,8.48
2022-11-21T17:20:37.369Z,8.55
2022-11-21T17:22:42.859Z,8.60
2022-11-21T17:24:47.439Z,8.40
2022-11-21T17:26:53.826Z,8.20
2022-11-21T17:29:01.194Z,8.80
2022-11-21T17:31:07.913Z,9.35
2022-11-21T17:33:12.309Z,8.60
2022-11-21T17:35:18.788Z,9.35
2022-11-21T17:37:26.282Z,9.98
2022-11-21T17:39:32.540Z,10.68
2022-11-21T17:41:38.207Z,10.82
2022-11-21T17:43:44.652Z,10.98
2022-11-21T17:45:51.116Z,11.38
2022-11-21T17:47:56.455Z,10.57
2022-11-21T17:50:05.974Z,10.18
2022-11-21T17:52:14.012Z,10.23
2022-11-21T17:54:18.894Z,10.57
2022-11-21T17:56:25.275Z,10.35
2022-11-21T17:58:31.377Z,11.18
2022-11-21T18:00:35.743Z,11.52
2022-11-21T18:02:40.348Z,11.60
2022-11-21T18:04:45.209Z,11.35
2022-11-21T18:06:50.018Z,10.98
2022-11-21T18:08:57.718Z,12.43
2022-11-21T18:11:05.210Z,10.95
2022-11-21T18:13:10.154Z,10.52
2022-11-21T18:15:14.604Z,10.27
2022-11-21T18:17:18.994Z,10.60
2022-11-21T18:19:24.319Z,10.38
2022-11-21T18:21:31.433Z,11.35
2022-11-21T18:23:36.746Z,11.05
2022-11-21T18:25:43.112Z,11.50
2022-11-21T18:27:54.098Z,10.30
2022-11-21T18:29:59.611Z,10.27
2022-11-21T18:32:08.128Z,10.90
2022-11-21T18:34:12.741Z,10.75
2022-11-21T18:36:17.670Z,10.57
2022-11-21T18:38:46.681Z,10.88
2022-11-21T18:40:48.216Z,10.35
2022-11-21T18:42:53.485Z,10.48
2022-11-21T18:44:57.754Z,10.48
2022-11-21T18:47:01.971Z,11.40
2022-11-21T18:49:08.200Z,10.93
2022-11-21T18:51:15.446Z,12.23
2022-11-21T18:53:22.464Z,13.65
2022-11-21T18:55:27.994Z,14.18
2022-11-21T18:57:34.923Z,12.63
2022-11-21T18:59:39.604Z,11.95
2022-11-21T19:01:44.266Z,11.20
2022-11-21T19:03:49.204Z,12.27
2022-11-21T19:05:53.803Z,10.95
2022-11-21T19:07:58.605Z,11.98
2022-11-21T19:10:27.858Z,11.45
2022-11-21T19:12:36.310Z,10.82
2022-11-21T19:14:46.711Z,10.23
2022-11-21T19:16:51.135Z,10.35
2022-11-21T19:19:33.485Z,11.75
2022-11-21T19:21:27.512Z,11.98
2022-11-21T19:23:33.735Z,12.32
2022-11-21T19:25:42.284Z,13.05
2022-11-21T19:27:47.031Z,13.93
2022-11-21T19:29:55.660Z,16.88
2022-11-21T19:32:01.669Z,18.52
2022-11-21T19:34:08.398Z,25.75
2022-11-21T19:36:16.055Z,33.03
2022-11-21T19:38:22.630Z,27.20
2022-11-21T19:40:46.991Z,20.48
2022-11-21T19:42:51.434Z,15.50
2022-11-21T19:45:01.013Z,15.30
2022-11-21T19:47:06.356Z,18.10
2022-11-21T19:49:12.926Z,17.02
2022-11-21T19:51:18.734Z,13.23
2022-11-21T19:53:24.058Z,12.90
2022-11-21T19:55:31.148Z,12.20
2022-11-21T19:57:39.951Z,13.10
2022-11-21T19:59:46.857Z,12.57
2022-11-21T20:01:54.243Z,12.65
2022-11-21T20:04:03.437Z,12.27
2022-11-21T20:06:15.467Z,13.90
2022-11-21T20:08:22.457Z,12.93
2022-11-21T20:10:27.920Z,12.93
2022-11-21T20:12:32.601Z,13.10
2022-11-21T20:14:37.028Z,12.85
2022-11-21T20:16:45.804Z,12.00
2022-11-21T20:18:53.257Z,13.13
2022-11-21T20:20:58.323Z,13.68
2022-11-21T20:23:03.339Z,12.07
2022-11-21T20:25:09.271Z,12.75
2022-11-21T20:27:15.211Z,11.98
2022-11-21T20:29:20.705Z,12.50
2022-11-21T20:31:27.258Z,11.93
2022-11-21T20:33:35.728Z,12.20
2022-11-21T20:35:44.011Z,12.50
2022-11-21T20:37:48.222Z,12.48
2022-11-21T20:39:53.341Z,12.57
2022-11-21T20:41:58.293Z,13.82
2022-11-21T20:46:30.249Z,12.55
2022-11-21T20:48:36.726Z,20.60
2022-11-21T20:55:34.052Z,33.50
2022-11-21T20:57:38.316Z,34.17
2022-11-21T20:59:42.740Z,33.75
2022-11-21T21:01:47.352Z,31.77
2022-11-21T21:03:52.002Z,37.65
2022-11-21T21:06:02.816Z,35.67
2022-11-21T21:08:11.117Z,33.55
2022-11-21T21:10:15.698Z,32.50
2022-11-21T21:12:24.073Z,30.20
2022-11-21T21:14:28.590Z,19.67
2022-11-21T21:16:34.635Z,31.38
2022-11-21T21:18:39.886Z,17.17
2022-11-21T21:21:09.536Z,16.05
2022-11-21T21:23:11.531Z,17.83
2022-11-21T21:25:16.067Z,16.60
2022-11-21T21:27:20.611Z,15.45
2022-11-21T21:29:25.275Z,16.98
2022-11-21T21:31:30.868Z,15.43
2022-11-21T21:33:35.593Z,15.98
2022-11-21T21:35:40.137Z,17.83
2022-11-21T21:37:45.100Z,17.02
2022-11-21T21:39:51.475Z,18.02
2022-11-21T21:41:56.937Z,17.33
2022-11-21T21:44:01.246Z,18.02
2022-11-21T21:46:06.895Z,19.27
2022-11-21T21:48:11.762Z,22.45
2022-11-21T21:50:16.311Z,18.23
2022-11-21T21:52:22.190Z,18.02
2022-11-21T21:54:26.647Z,17.42
2022-11-21T21:56:32.767Z,19.95
2022-11-21T21:58:39.458Z,18.45
2022-11-21T22:00:44.596Z,20.70
2022-11-21T22:02:48.828Z,18.40
2022-11-21T22:04:53.204Z,18.90
2022-11-21T22:06:58.621Z,19.20
2022-11-21T22:09:03.287Z,20.92
2022-11-21T22:11:13.692Z,23.00
2022-11-21T22:13:19.685Z,20.83
2022-11-21T22:15:24.023Z,23.45
2022-11-21T22:17:28.366Z,20.63
2022-11-21T22:19:32.944Z,20.42
2022-11-21T22:21:39.485Z,20.15
2022-11-21T22:24:02.991Z,21.45
2022-11-21T22:26:11.022Z,20.10
2022-11-21T22:28:16.247Z,20.20
2022-11-21T22:30:23.529Z,20.35
2022-11-21T22:32:28.567Z,21.95
2022-11-21T22:34:33.182Z,21.02
2022-11-21T22:36:37.985Z,22.33
2022-11-21T22:38:42.432Z,22.27
2022-11-21T22:40:47.364Z,21.33
2022-11-21T22:42:52.825Z,22.55
2022-11-21T22:44:57.159Z,22.00
2022-11-21T22:47:03.045Z,20.60
2022-11-21T22:49:11.804Z,21.83
2022-11-21T22:51:17.427Z,22.92
2022-11-21T22:53:21.823Z,22.40
2022-11-21T22:55:26.549Z,22.48
2022-11-21T22:57:31.087Z,23.52
2022-11-21T22:59:35.942Z,22.70
2022-11-21T23:01:40.988Z,23.95
2022-11-21T23:03:47.653Z,24.63
2022-11-21T23:06:00.817Z,23.95
2022-11-21T23:08:09.054Z,22.23
2022-11-21T23:10:14.803Z,22.95
2022-11-21T23:12:19.034Z,20.25
2022-11-21T23:14:24.560Z,18.65
2022-11-21T23:16:29.751Z,19.92
2022-11-21T23:18:34.744Z,18.75
2022-11-21T23:20:41.817Z,19.27
2022-11-21T23:22:46.129Z,18.70
2022-11-21T23:24:50.389Z,18.88
2022-11-21T23:26:54.863Z,19.25
2022-11-21T23:29:06.696Z,18.17
2022-11-21T23:31:12.972Z,18.42
2022-11-21T23:33:17.619Z,18.48
2022-11-21T23:35:21.849Z,18.50
2022-11-21T23:37:27.785Z,18.55
2022-11-21T23:39:32.409Z,17.83
2022-11-21T23:41:37.317Z,18.58
2022-11-21T23:43:42.342Z,17.15
2022-11-21T23:45:50.953Z,18.52
2022-11-21T23:47:55.234Z,18.45
2022-11-21T23:50:00.117Z,17.77
2022-11-21T23:52:04.499Z,20.10
2022-11-21T23:54:10.396Z,19.38
2022-11-21T23:56:14.747Z,19.25
2022-11-21T23:58:20.051Z,19.10
